IGO6010 VIJU-VISR
Flight info
| Callsign | IGO6010 |
|---|---|
| Flight time | 0h 19m |
| Altitude | 17000 |
| Route | JJU W22 MESAR/N0344F160 |
| Aircraft | A320/M-SDE3FGHIRWY/LB1 |
Departure
| Time | 2026-05-05 18:40 |
|---|---|
| Airport | Jammu Airport (VIJU) |
Arrival
| Time | 2026-05-05 19:00 |
|---|---|
| Airport | Sheikh ul Alam International Airport (VISR) |
| Time | Latitude | Longitude | Altitude | Speed | Heading |
|---|---|---|---|---|---|
| 2026-05-05 18:31 | 32.69096 | 74.84181 | 964 ft | 0 kts | 208° |
| 2026-05-05 18:39 | 32.69095 | 74.84180 | 964 ft | 1 kts | 208° |
| 2026-05-05 18:39 | 32.69077 | 74.84169 | 962 ft | 4 kts | 208° |
| 2026-05-05 18:40 | 32.69069 | 74.84164 | 964 ft | 0 kts | 208° |
| 2026-05-05 18:40 | 32.68863 | 74.84044 | 963 ft | 78 kts | 204° |
| 2026-05-05 18:40 | 32.68087 | 74.83832 | 984 ft | 150 kts | 189° |
| 2026-05-05 18:40 | 32.67135 | 74.83339 | 1717 ft | 154 kts | 244° |
| 2026-05-05 18:41 | 32.67544 | 74.82239 | 2075 ft | 175 kts | 343° |
| 2026-05-05 18:41 | 32.68863 | 74.82347 | 2466 ft | 209 kts | 9° |
| 2026-05-05 18:41 | 32.70391 | 74.82812 | 2951 ft | 249 kts | 18° |
| 2026-05-05 18:41 | 32.72182 | 74.83433 | 3006 ft | 289 kts | 15° |
| 2026-05-05 18:42 | 32.74217 | 74.84072 | 3111 ft | 300 kts | 14° |
| 2026-05-05 18:42 | 32.76226 | 74.84438 | 4033 ft | 294 kts | 3° |
| 2026-05-05 18:42 | 32.78302 | 74.84607 | 4759 ft | 303 kts | 2° |
| 2026-05-05 18:42 | 32.80420 | 74.84767 | 5613 ft | 306 kts | 2° |
| 2026-05-05 18:43 | 32.82554 | 74.84921 | 6517 ft | 308 kts | 2° |
| 2026-05-05 18:43 | 32.84699 | 74.85072 | 7364 ft | 311 kts | 2° |
| 2026-05-05 18:43 | 32.86871 | 74.85223 | 8222 ft | 313 kts | 2° |
| 2026-05-05 18:43 | 32.89061 | 74.85373 | 9083 ft | 316 kts | 2° |
| 2026-05-05 18:44 | 32.91260 | 74.85523 | 9901 ft | 319 kts | 2° |
| 2026-05-05 18:44 | 32.93489 | 74.85679 | 10646 ft | 322 kts | 2° |
| 2026-05-05 18:44 | 32.95743 | 74.85837 | 11406 ft | 325 kts | 2° |
| 2026-05-05 18:44 | 32.98015 | 74.85998 | 12171 ft | 328 kts | 2° |
| 2026-05-05 18:45 | 33.00302 | 74.86160 | 12927 ft | 331 kts | 2° |
| 2026-05-05 18:45 | 33.02611 | 74.86323 | 13671 ft | 334 kts | 2° |
| 2026-05-05 18:45 | 33.04979 | 74.86490 | 14348 ft | 337 kts | 2° |
| 2026-05-05 18:45 | 33.07329 | 74.86655 | 14835 ft | 340 kts | 2° |
| 2026-05-05 18:46 | 33.09770 | 74.86828 | 14992 ft | 351 kts | 2° |
| 2026-05-05 18:46 | 33.12269 | 74.87004 | 15038 ft | 372 kts | 2° |
| 2026-05-05 18:46 | 33.14939 | 74.87191 | 15045 ft | 393 kts | 2° |
| 2026-05-05 18:46 | 33.17726 | 74.87384 | 15059 ft | 410 kts | 2° |
| 2026-05-05 18:47 | 33.20615 | 74.87586 | 15072 ft | 420 kts | 2° |
| 2026-05-05 18:47 | 33.23535 | 74.87793 | 15078 ft | 422 kts | 2° |
| 2026-05-05 18:47 | 33.26482 | 74.88002 | 15090 ft | 423 kts | 2° |
| 2026-05-05 18:47 | 33.29389 | 74.88209 | 15096 ft | 409 kts | 2° |
| 2026-05-05 18:48 | 33.32148 | 74.88407 | 15109 ft | 386 kts | 2° |
| 2026-05-05 18:48 | 33.34753 | 74.88594 | 15118 ft | 363 kts | 2° |
| 2026-05-05 18:48 | 33.37233 | 74.88771 | 15130 ft | 355 kts | 2° |
| 2026-05-05 18:48 | 33.39688 | 74.88947 | 15135 ft | 353 kts | 2° |
| 2026-05-05 18:49 | 33.42139 | 74.89122 | 15140 ft | 349 kts | 2° |
| 2026-05-05 18:49 | 33.44497 | 74.89317 | 15147 ft | 330 kts | 7° |
| 2026-05-05 18:49 | 33.46610 | 74.90180 | 15150 ft | 315 kts | 28° |
| 2026-05-05 18:49 | 33.48415 | 74.91581 | 15053 ft | 306 kts | 32° |
| 2026-05-05 18:50 | 33.50171 | 74.93022 | 14713 ft | 306 kts | 32° |
| 2026-05-05 18:50 | 33.51917 | 74.94467 | 14425 ft | 304 kts | 33° |
| 2026-05-05 18:50 | 33.53674 | 74.95917 | 14032 ft | 302 kts | 32° |
| 2026-05-05 18:50 | 33.55400 | 74.97342 | 13537 ft | 301 kts | 33° |
| 2026-05-05 18:51 | 33.57123 | 74.98758 | 13030 ft | 299 kts | 32° |
| 2026-05-05 18:51 | 33.58860 | 75.00100 | 12508 ft | 295 kts | 24° |
| 2026-05-05 18:51 | 33.60740 | 75.00972 | 12023 ft | 292 kts | 13° |
| 2026-05-05 18:51 | 33.62766 | 75.01183 | 11547 ft | 288 kts | 352° |
| 2026-05-05 18:52 | 33.64675 | 75.00602 | 11067 ft | 287 kts | 342° |
| 2026-05-05 18:52 | 33.65947 | 75.00113 | 10878 ft | 281 kts | 342° |
| 2026-05-05 18:53 | 33.67521 | 74.99504 | 10677 ft | 274 kts | 342° |
| 2026-05-05 18:53 | 33.69245 | 74.98828 | 10461 ft | 275 kts | 341° |
| 2026-05-05 18:53 | 33.71093 | 74.98094 | 10302 ft | 276 kts | 342° |
| 2026-05-05 18:53 | 33.72915 | 74.97372 | 10185 ft | 277 kts | 341° |
| 2026-05-05 18:54 | 33.74742 | 74.96649 | 10079 ft | 276 kts | 342° |
| 2026-05-05 18:54 | 33.76546 | 74.95936 | 9944 ft | 269 kts | 342° |
| 2026-05-05 18:54 | 33.78362 | 74.95601 | 9817 ft | 262 kts | 360° |
| 2026-05-05 18:54 | 33.80154 | 74.95666 | 9684 ft | 254 kts | 2° |
| 2026-05-05 18:55 | 33.81880 | 74.95568 | 9546 ft | 246 kts | 347° |
| 2026-05-05 18:55 | 33.83439 | 74.94793 | 9293 ft | 243 kts | 326° |
| 2026-05-05 18:55 | 33.84717 | 74.93466 | 8993 ft | 243 kts | 317° |
| 2026-05-05 18:55 | 33.85940 | 74.92057 | 8675 ft | 244 kts | 316° |
| 2026-05-05 18:56 | 33.87167 | 74.90646 | 8354 ft | 244 kts | 316° |
| 2026-05-05 18:56 | 33.88370 | 74.89267 | 8043 ft | 234 kts | 316° |
| 2026-05-05 18:56 | 33.89522 | 74.87947 | 7720 ft | 223 kts | 316° |
| 2026-05-05 18:56 | 33.90623 | 74.86684 | 7429 ft | 212 kts | 315° |
| 2026-05-05 18:57 | 33.91651 | 74.85505 | 7125 ft | 198 kts | 314° |
| 2026-05-05 18:57 | 33.92617 | 74.84396 | 6892 ft | 184 kts | 314° |
| 2026-05-05 18:57 | 33.93509 | 74.83371 | 6688 ft | 171 kts | 315° |
| 2026-05-05 18:57 | 33.94344 | 74.82412 | 6509 ft | 163 kts | 315° |
| 2026-05-05 18:58 | 33.95158 | 74.81478 | 6318 ft | 160 kts | 315° |
| 2026-05-05 18:58 | 33.95953 | 74.80555 | 6056 ft | 158 kts | 315° |
| 2026-05-05 18:58 | 33.96750 | 74.79650 | 5826 ft | 157 kts | 314° |
| 2026-05-05 18:58 | 33.97538 | 74.78747 | 5626 ft | 155 kts | 313° |
| 2026-05-05 18:59 | 33.98284 | 74.77885 | 5578 ft | 131 kts | 316° |
| 2026-05-05 18:59 | 33.98789 | 74.77290 | 5579 ft | 88 kts | 315° |
| 2026-05-05 18:59 | 33.99207 | 74.76803 | 5579 ft | 80 kts | 317° |
| 2026-05-05 18:59 | 33.99581 | 74.76372 | 5578 ft | 69 kts | 315° |
| 2026-05-05 19:00 | 33.99762 | 74.76167 | 5577 ft | 21 kts | 324° |
| 2026-05-05 19:00 | 33.99895 | 74.76159 | 5586 ft | 17 kts | 10° |
| 2026-05-05 19:00 | 33.99987 | 74.76183 | 5596 ft | 11 kts | 13° |
| 2026-05-05 19:00 | 34.00054 | 74.76203 | 5598 ft | 9 kts | 13° |
| 2026-05-05 19:01 | 34.00099 | 74.76215 | 5598 ft | 0 kts | 14° |